Ns Spirit — ER2658 — position and weather

sailwx.info

Track history (hours):
 
Tides and Currents Weather Stations Pressure Air Temp Water Temp Dewpoint Dewpoint Depression Visibility Wind Speed Wind Dir Waves Ship Positions

Ns Spirit

Last reported at 2017-Sep-01 17:43 UTC. Time now 2017-Sep-22 20:50 UTC.
Position N 37°45' E 019°26'.
Warning: this ship's position is 21 days out of date.

Length 89 m; draft 2.6 m.

Type: Cargo ship. MMSI: 214182658.

Date/timePositionNaut miles runAvg speedWind from/ knotsBaromVisibWave heightAir tempDewpointWater temp
2017-Sep-01 17:43N 37°45' E 019°26'210.4
2017-Sep-01 17:30N 37°48' E 019°25'2810.5
2017-Sep-01 14:48N 38°16' E 019°24'310.3
2017-Sep-01 14:30N 38°19' E 019°24'64 9.8
2017-Sep-01 07:59N 39°23' E 019°20'22 9.7
2017-Sep-01 05:45N 39°44' E 019°17'2 9.6
2017-Sep-01 05:30N 39°47' E 019°17'5 9.5
2017-Sep-01 05:00N 39°51' E 019°17'5 9.5
2017-Sep-01 04:30N 39°56' E 019°17'13 9.5
2017-Sep-01 03:08N 40°09' E 019°16'1 9.7
2017-Sep-01 03:00N 40°10' E 019°16'5 9.7
2017-Sep-01 02:30N 40°15' E 019°15'5 9.3
2017-Sep-01 02:00N 40°20' E 019°14'4 8.9
2017-Sep-01 01:30N 40°24' E 019°14'4 8.3
2017-Sep-01 01:00N 40°28' E 019°13'4 8.4
2017-Sep-01 00:30N 40°32' E 019°13'4 8.9
2017-Sep-01 00:00N 40°37' E 019°14'5 9.3
2017-Aug-31 23:30N 40°42' E 019°14'5 9.6
2017-Aug-31 22:56N 40°47' E 019°15'11 9.5
2017-Aug-31 21:46N 40°58' E 019°18'5 9.4
2017-Aug-31 21:13N 41°03' E 019°19'3 9.4
2017-Aug-31 20:55N 41°06' E 019°20'13 9.1
2017-Aug-31 19:33N 41°17' E 019°27'0 7.6
2017-Aug-31 19:30N 41°17' E 019°27'1 0.0
2017-Aug-30 20:40N 41°18' E 019°27'  
2017-Aug-26 19:34N 41°16' E 019°28'0 0.0
2017-Aug-26 19:28N 41°16' E 019°28'20 1.5
2017-Aug-26 05:39N 40°58' E 019°19'1 8.8
2017-Aug-26 05:30N 40°56' E 019°18'6 8.9
2017-Aug-26 04:50N 40°51' E 019°16'35 8.8
2017-Aug-26 00:51N 40°15' E 019°20'3 9.8
2017-Aug-26 00:30N 40°13' E 019°23'10 9.7
2017-Aug-25 23:31N 40°07' E 019°33'0 9.3
2017-Aug-25 23:30N 40°07' E 019°33'5 9.7
2017-Aug-25 23:00N 40°04' E 019°38'5 9.6
2017-Aug-25 22:30N 40°01' E 019°43'199 7.3
2017-Aug-24 19:19N 37°55' E 023°01'3 6.6
2017-Aug-24 18:55N 37°54' E 023°04'4 8.6
2017-Aug-24 18:29N 37°53' E 023°09'4 8.7
2017-Aug-24 18:00N 37°52' E 023°14'4 8.8
2017-Aug-24 17:30N 37°51' E 023°19'4 8.6
2017-Aug-24 17:00N 37°51' E 023°24'4 8.6
2017-Aug-24 16:30N 37°50' E 023°30'4 8.1
2017-Aug-24 16:00N 37°52' E 023°34'4 7.7
2017-Aug-24 15:30N 37°55' E 023°37'3 6.5
2017-Aug-24 15:00N 37°57' E 023°33'3 7.0
2017-Aug-24 14:30N 38°01' E 023°33'1 1.0
2017-Aug-24 14:00N 38°01' E 023°33'0 0.0
2017-Aug-24 13:30N 38°01' E 023°33'0 0.0
2017-Aug-24 13:00N 38°01' E 023°33'0 0.1
2017-Aug-24 12:30N 38°01' E 023°32'2 4.5
2017-Aug-24 12:00N 38°02' E 023°35'0 0.5
2017-Aug-24 11:30N 38°02' E 023°35'0 0.0
2017-Aug-24 11:00N 38°02' E 023°35'0 0.0
2017-Aug-24 10:30N 38°02' E 023°35'0 0.0
2017-Aug-24 10:00N 38°02' E 023°35'0 0.0
2017-Aug-24 09:30N 38°02' E 023°35'0 0.0
2017-Aug-24 09:00N 38°02' E 023°35'0 0.0
2017-Aug-24 08:27N 38°02' E 023°35'0 0.0
2017-Aug-24 08:00N 38°02' E 023°35'0 0.0
2017-Aug-24 07:30N 38°02' E 023°35'0 0.0
2017-Aug-24 06:54N 38°02' E 023°35'0 0.0
2017-Aug-24 06:30N 38°02' E 023°35'0 0.0
2017-Aug-24 05:54N 38°02' E 023°35'0 0.0
2017-Aug-24 05:30N 38°02' E 023°35'0 0.0
2017-Aug-24 04:54N 38°02' E 023°35'0 0.0
2017-Aug-24 04:30N 38°02' E 023°35'0 0.0
2017-Aug-24 04:00N 38°02' E 023°35'0 0.0
2017-Aug-24 03:30N 38°02' E 023°35'0 0.0
2017-Aug-24 03:00N 38°02' E 023°35'0 0.0
2017-Aug-24 02:30N 38°02' E 023°35'0 0.0
2017-Aug-24 01:36N 38°02' E 023°35'0 0.0
2017-Aug-24 01:24N 38°02' E 023°35'0 0.0
2017-Aug-24 01:00N 38°02' E 023°35'0 0.0
2017-Aug-24 00:18N 38°02' E 023°35'0 0.0
2017-Aug-24 00:00N 38°02' E 023°35'0 0.0
2017-Aug-23 23:30N 38°02' E 023°35'0 0.0
2017-Aug-23 23:00N 38°02' E 023°35'0 0.0
2017-Aug-23 22:30N 38°02' E 023°35'0 0.0
2017-Aug-23 22:00N 38°02' E 023°35'0 0.0
2017-Aug-23 21:30N 38°02' E 023°35'0 0.0
2017-Aug-23 20:48N 38°02' E 023°35'0 0.0
2017-Aug-23 20:15N 38°02' E 023°35'0 0.0
2017-Aug-23 20:00N 38°02' E 023°35'0 0.0
2017-Aug-23 19:30N 38°02' E 023°35'0 0.0
2017-Aug-23 19:00N 38°02' E 023°35'0 0.0
2017-Aug-23 18:30N 38°02' E 023°35'0 0.0
2017-Aug-23 18:00N 38°02' E 023°35'0 0.0
2017-Aug-23 17:30N 38°02' E 023°35'0 0.0
2017-Aug-23 17:00N 38°02' E 023°35'0 0.0
2017-Aug-23 16:30N 38°02' E 023°35'0 0.0
2017-Aug-23 16:00N 38°02' E 023°35'0 0.0
2017-Aug-23 15:30N 38°02' E 023°35'0 0.0
2017-Aug-23 15:00N 38°02' E 023°35'0 0.0
2017-Aug-23 14:30N 38°02' E 023°35'0 0.0
2017-Aug-23 13:30N 38°02' E 023°35'0 0.0
2017-Aug-23 13:00N 38°02' E 023°35'0 0.0
2017-Aug-23 12:30N 38°02' E 023°35'0 0.0
2017-Aug-23 12:00N 38°02' E 023°35'0 0.0
2017-Aug-23 11:27N 38°02' E 023°35'0 0.0
2017-Aug-23 11:00N 38°02' E 023°35'0 0.0
2017-Aug-23 10:30N 38°02' E 023°35'0 0.0
2017-Aug-23 10:00N 38°02' E 023°35'0 0.0
2017-Aug-23 09:30N 38°02' E 023°35'0 0.0
2017-Aug-23 09:00N 38°02' E 023°35'0 0.0
2017-Aug-23 08:30N 38°02' E 023°35'0 0.0
2017-Aug-23 08:00N 38°02' E 023°35'0 0.0
2017-Aug-23 07:30N 38°02' E 023°35'0 0.0
2017-Aug-23 07:00N 38°02' E 023°35'0 0.0
2017-Aug-23 06:30N 38°02' E 023°35'0 0.0
2017-Aug-23 06:00N 38°02' E 023°35'0 0.0
2017-Aug-23 05:30N 38°02' E 023°35'0 0.0
2017-Aug-23 05:00N 38°02' E 023°35'0 0.0
2017-Aug-23 04:30N 38°02' E 023°35'0 0.0
2017-Aug-23 04:00N 38°02' E 023°35'0 0.0
2017-Aug-23 03:30N 38°02' E 023°35'0 0.0
2017-Aug-23 03:00N 38°02' E 023°35'0 0.0
2017-Aug-23 02:30N 38°02' E 023°35'0 0.0
2017-Aug-23 02:00N 38°02' E 023°35'0 0.0
2017-Aug-23 01:30N 38°02' E 023°35'0 0.0
2017-Aug-23 01:00N 38°02' E 023°35'0 0.0
2017-Aug-23 00:30N 38°02' E 023°35'0 0.0
2017-Aug-23 00:00N 38°02' E 023°35'0 0.0
2017-Aug-22 23:30N 38°02' E 023°35'0 0.0
2017-Aug-22 23:00N 38°02' E 023°35'0 0.0
2017-Aug-22 22:30N 38°02' E 023°35'0 0.0
2017-Aug-22 22:00N 38°02' E 023°35'0 0.0
2017-Aug-22 21:30N 38°02' E 023°35'0 0.0
2017-Aug-22 21:00N 38°02' E 023°35'0 0.0
2017-Aug-22 20:30N 38°02' E 023°35'0 0.0
2017-Aug-22 20:00N 38°02' E 023°35'0 0.0
2017-Aug-22 19:30N 38°02' E 023°35'0 0.0
2017-Aug-22 19:00N 38°02' E 023°35'0 0.0
2017-Aug-22 18:30N 38°02' E 023°35'0 0.0
2017-Aug-22 17:54N 38°02' E 023°35'  
Track history (hours):
 
Tides and Currents Weather Stations Pressure Air Temp Water Temp Dewpoint Dewpoint Depression Visibility Wind Speed Wind Dir Waves Ship Positions

Ns Spirit

Last reported at 2017-Sep-01 17:43 UTC. Time now 2017-Sep-22 20:50 UTC.
Position N 37°45' E 019°26'.
Warning: this ship's position is 21 days out of date.

Length 89 m; draft 2.6 m.

Type: Cargo ship. MMSI: 214182658.

Date/timePositionNaut miles runAvg speedWind from/ knotsBaromVisibWave heightAir tempDewpointWater temp
2017-Sep-01 17:43N 37°45' E 019°26'210.4
2017-Sep-01 17:30N 37°48' E 019°25'2810.5
2017-Sep-01 14:48N 38°16' E 019°24'310.3
2017-Sep-01 14:30N 38°19' E 019°24'64 9.8
2017-Sep-01 07:59N 39°23' E 019°20'22 9.7
2017-Sep-01 05:45N 39°44' E 019°17'2 9.6
2017-Sep-01 05:30N 39°47' E 019°17'5 9.5
2017-Sep-01 05:00N 39°51' E 019°17'5 9.5
2017-Sep-01 04:30N 39°56' E 019°17'13 9.5
2017-Sep-01 03:08N 40°09' E 019°16'1 9.7
2017-Sep-01 03:00N 40°10' E 019°16'5 9.7
2017-Sep-01 02:30N 40°15' E 019°15'5 9.3
2017-Sep-01 02:00N 40°20' E 019°14'4 8.9
2017-Sep-01 01:30N 40°24' E 019°14'4 8.3
2017-Sep-01 01:00N 40°28' E 019°13'4 8.4
2017-Sep-01 00:30N 40°32' E 019°13'4 8.9
2017-Sep-01 00:00N 40°37' E 019°14'5 9.3
2017-Aug-31 23:30N 40°42' E 019°14'5 9.6
2017-Aug-31 22:56N 40°47' E 019°15'11 9.5
2017-Aug-31 21:46N 40°58' E 019°18'5 9.4
2017-Aug-31 21:13N 41°03' E 019°19'3 9.4
2017-Aug-31 20:55N 41°06' E 019°20'13 9.1
2017-Aug-31 19:33N 41°17' E 019°27'0 7.6
2017-Aug-31 19:30N 41°17' E 019°27'1 0.0
2017-Aug-30 20:40N 41°18' E 019°27'  
2017-Aug-26 19:34N 41°16' E 019°28'0 0.0
2017-Aug-26 19:28N 41°16' E 019°28'20 1.5
2017-Aug-26 05:39N 40°58' E 019°19'1 8.8
2017-Aug-26 05:30N 40°56' E 019°18'6 8.9
2017-Aug-26 04:50N 40°51' E 019°16'35 8.8
2017-Aug-26 00:51N 40°15' E 019°20'3 9.8
2017-Aug-26 00:30N 40°13' E 019°23'10 9.7
2017-Aug-25 23:31N 40°07' E 019°33'0 9.3
2017-Aug-25 23:30N 40°07' E 019°33'5 9.7
2017-Aug-25 23:00N 40°04' E 019°38'5 9.6
2017-Aug-25 22:30N 40°01' E 019°43'199 7.3
2017-Aug-24 19:19N 37°55' E 023°01'3 6.6
2017-Aug-24 18:55N 37°54' E 023°04'4 8.6
2017-Aug-24 18:29N 37°53' E 023°09'4 8.7
2017-Aug-24 18:00N 37°52' E 023°14'4 8.8
2017-Aug-24 17:30N 37°51' E 023°19'4 8.6
2017-Aug-24 17:00N 37°51' E 023°24'4 8.6
2017-Aug-24 16:30N 37°50' E 023°30'4 8.1
2017-Aug-24 16:00N 37°52' E 023°34'4 7.7
2017-Aug-24 15:30N 37°55' E 023°37'3 6.5
2017-Aug-24 15:00N 37°57' E 023°33'3 7.0
2017-Aug-24 14:30N 38°01' E 023°33'1 1.0
2017-Aug-24 14:00N 38°01' E 023°33'0 0.0
2017-Aug-24 13:30N 38°01' E 023°33'0 0.0
2017-Aug-24 13:00N 38°01' E 023°33'0 0.1
2017-Aug-24 12:30N 38°01' E 023°32'2 4.5
2017-Aug-24 12:00N 38°02' E 023°35'0 0.5
2017-Aug-24 11:30N 38°02' E 023°35'0 0.0
2017-Aug-24 11:00N 38°02' E 023°35'0 0.0
2017-Aug-24 10:30N 38°02' E 023°35'0 0.0
2017-Aug-24 10:00N 38°02' E 023°35'0 0.0
2017-Aug-24 09:30N 38°02' E 023°35'0 0.0
2017-Aug-24 09:00N 38°02' E 023°35'0 0.0
2017-Aug-24 08:27N 38°02' E 023°35'0 0.0
2017-Aug-24 08:00N 38°02' E 023°35'0 0.0
2017-Aug-24 07:30N 38°02' E 023°35'0 0.0
2017-Aug-24 06:54N 38°02' E 023°35'0 0.0
2017-Aug-24 06:30N 38°02' E 023°35'0 0.0
2017-Aug-24 05:54N 38°02' E 023°35'0 0.0
2017-Aug-24 05:30N 38°02' E 023°35'0 0.0
2017-Aug-24 04:54N 38°02' E 023°35'0 0.0
2017-Aug-24 04:30N 38°02' E 023°35'0 0.0
2017-Aug-24 04:00N 38°02' E 023°35'0 0.0
2017-Aug-24 03:30N 38°02' E 023°35'0 0.0
2017-Aug-24 03:00N 38°02' E 023°35'0 0.0
2017-Aug-24 02:30N 38°02' E 023°35'0 0.0
2017-Aug-24 01:36N 38°02' E 023°35'0 0.0
2017-Aug-24 01:24N 38°02' E 023°35'0 0.0
2017-Aug-24 01:00N 38°02' E 023°35'0 0.0
2017-Aug-24 00:18N 38°02' E 023°35'0 0.0
2017-Aug-24 00:00N 38°02' E 023°35'0 0.0
2017-Aug-23 23:30N 38°02' E 023°35'0 0.0
2017-Aug-23 23:00N 38°02' E 023°35'0 0.0
2017-Aug-23 22:30N 38°02' E 023°35'0 0.0
2017-Aug-23 22:00N 38°02' E 023°35'0 0.0
2017-Aug-23 21:30N 38°02' E 023°35'0 0.0
2017-Aug-23 20:48N 38°02' E 023°35'0 0.0
2017-Aug-23 20:15N 38°02' E 023°35'0 0.0
2017-Aug-23 20:00N 38°02' E 023°35'0 0.0
2017-Aug-23 19:30N 38°02' E 023°35'0 0.0
2017-Aug-23 19:00N 38°02' E 023°35'0 0.0
2017-Aug-23 18:30N 38°02' E 023°35'0 0.0
2017-Aug-23 18:00N 38°02' E 023°35'0 0.0
2017-Aug-23 17:30N 38°02' E 023°35'0 0.0
2017-Aug-23 17:00N 38°02' E 023°35'0 0.0
2017-Aug-23 16:30N 38°02' E 023°35'0 0.0
2017-Aug-23 16:00N 38°02' E 023°35'0 0.0
2017-Aug-23 15:30N 38°02' E 023°35'0 0.0
2017-Aug-23 15:00N 38°02' E 023°35'0 0.0
2017-Aug-23 14:30N 38°02' E 023°35'0 0.0
2017-Aug-23 13:30N 38°02' E 023°35'0 0.0
2017-Aug-23 13:00N 38°02' E 023°35'0 0.0
2017-Aug-23 12:30N 38°02' E 023°35'0 0.0
2017-Aug-23 12:00N 38°02' E 023°35'0 0.0
2017-Aug-23 11:27N 38°02' E 023°35'0 0.0
2017-Aug-23 11:00N 38°02' E 023°35'0 0.0
2017-Aug-23 10:30N 38°02' E 023°35'0 0.0
2017-Aug-23 10:00N 38°02' E 023°35'0 0.0
2017-Aug-23 09:30N 38°02' E 023°35'0 0.0
2017-Aug-23 09:00N 38°02' E 023°35'0 0.0
2017-Aug-23 08:30N 38°02' E 023°35'0 0.0
2017-Aug-23 08:00N 38°02' E 023°35'0 0.0
2017-Aug-23 07:30N 38°02' E 023°35'0 0.0
2017-Aug-23 07:00N 38°02' E 023°35'0 0.0
2017-Aug-23 06:30N 38°02' E 023°35'0 0.0
2017-Aug-23 06:00N 38°02' E 023°35'0 0.0
2017-Aug-23 05:30N 38°02' E 023°35'0 0.0
2017-Aug-23 05:00N 38°02' E 023°35'0 0.0
2017-Aug-23 04:30N 38°02' E 023°35'0 0.0
2017-Aug-23 04:00N 38°02' E 023°35'0 0.0
2017-Aug-23 03:30N 38°02' E 023°35'0 0.0
2017-Aug-23 03:00N 38°02' E 023°35'0 0.0
2017-Aug-23 02:30N 38°02' E 023°35'0 0.0
2017-Aug-23 02:00N 38°02' E 023°35'0 0.0
2017-Aug-23 01:30N 38°02' E 023°35'0 0.0
2017-Aug-23 01:00N 38°02' E 023°35'0 0.0
2017-Aug-23 00:30N 38°02' E 023°35'0 0.0
2017-Aug-23 00:00N 38°02' E 023°35'0 0.0
2017-Aug-22 23:30N 38°02' E 023°35'0 0.0
2017-Aug-22 23:00N 38°02' E 023°35'0 0.0
2017-Aug-22 22:30N 38°02' E 023°35'0 0.0
2017-Aug-22 22:00N 38°02' E 023°35'0 0.0
2017-Aug-22 21:30N 38°02' E 023°35'0 0.0
2017-Aug-22 21:00N 38°02' E 023°35'0 0.0
2017-Aug-22 20:30N 38°02' E 023°35'0 0.0
2017-Aug-22 20:00N 38°02' E 023°35'0 0.0
2017-Aug-22 19:30N 38°02' E 023°35'0 0.0
2017-Aug-22 19:00N 38°02' E 023°35'0 0.0
2017-Aug-22 18:30N 38°02' E 023°35'0 0.0
2017-Aug-22 17:54N 38°02' E 023°35'  

Dump ship's entire track history